Rzhev, Russia
Current Conditions -  °F | °C
As of 9:30 AM on Monday 24 Nov 2014 (Local Time) from UUBW Reporting Station
Freezing Drizzle Freezing Drizzle  
Wind Chill: 21°   Ceiling: 900
Heat Index: 27°   Visibility: 3mi
Dew Point: 25°   Wind: 4mph
Humidity: 93%   Direction: 110°ESE
Pressure: 30.68"   Gusts: NA
Location:  56.26°N, 34.33°E
Report Text: UUBW 240630Z 11002MPS 5000 -FZDZ BR OVC009 M03/M04 Q1039 NOSIG
Loading
Personal Weather Stations






























Interactive Weather Map New forecast layout! Learn more

10-Day Weather Forecast

Advertisements
Track Severe Weather on mobile